createdAt,value
2018-06-16T00:01:11.572Z,24.00
2018-06-16T00:03:42.397Z,21.00
2018-06-16T00:06:12.970Z,26.00
2018-06-16T00:08:47.428Z,22.67
2018-06-16T00:11:19.552Z,22.33
2018-06-16T00:13:50.212Z,20.67
2018-06-16T00:16:21.656Z,21.67
2018-06-16T00:18:54.032Z,22.33
2018-06-16T00:21:25.269Z,21.00
2018-06-16T00:23:58.475Z,18.00
2018-06-16T00:26:29.736Z,18.00
2018-06-16T00:29:00.369Z,20.67
2018-06-16T00:31:32.226Z,20.67
2018-06-16T00:34:02.713Z,22.00
2018-06-16T00:36:33.332Z,19.33
2018-06-16T00:39:06.614Z,22.67
2018-06-16T00:41:40.213Z,17.33
2018-06-16T00:44:11.578Z,22.67
2018-06-16T00:46:42.973Z,21.33
2018-06-16T00:49:15.298Z,18.33
2018-06-16T00:51:46.926Z,17.33
2018-06-16T00:54:17.429Z,18.00
2018-06-16T00:57:01.223Z,21.00
2018-06-16T00:59:32.829Z,20.67
2018-06-16T01:02:04.434Z,21.00
2018-06-16T01:04:35.025Z,19.33
2018-06-16T01:07:06.031Z,18.00
2018-06-16T01:09:38.427Z,21.00
2018-06-16T01:12:09.024Z,20.33
2018-06-16T01:14:39.539Z,20.67
2018-06-16T01:17:11.832Z,21.33
2018-06-16T01:19:44.495Z,21.00
2018-06-16T01:22:16.868Z,19.00
2018-06-16T01:24:47.399Z,21.33
2018-06-16T01:27:17.986Z,21.00
2018-06-16T01:29:48.585Z,20.67
2018-06-16T01:32:20.019Z,20.67
2018-06-16T01:34:54.387Z,21.00
2018-06-16T01:37:27.591Z,20.00
2018-06-16T01:39:58.248Z,20.67
2018-06-16T01:42:30.370Z,19.67
2018-06-16T01:45:03.561Z,18.00
2018-06-16T01:47:34.072Z,19.33
2018-06-16T01:50:06.271Z,18.00
2018-06-16T01:52:38.587Z,22.00
2018-06-16T01:55:10.987Z,18.67
2018-06-16T01:57:43.304Z,21.33
2018-06-16T02:00:16.743Z,19.67
2018-06-16T02:02:48.348Z,18.67
2018-06-16T02:05:18.892Z,20.67
2018-06-16T02:07:49.506Z,19.00
2018-06-16T02:10:19.985Z,23.67
2018-06-16T02:12:50.553Z,21.33
2018-06-16T02:15:21.208Z,23.67
2018-06-16T02:17:51.784Z,22.67
2018-06-16T02:20:22.544Z,24.33
2018-06-16T02:22:53.094Z,20.67
2018-06-16T02:25:24.495Z,25.67
2018-06-16T02:27:56.820Z,24.67
2018-06-16T02:30:29.845Z,22.00
2018-06-16T02:33:00.405Z,20.33
2018-06-16T02:35:31.177Z,23.33
2018-06-16T02:38:01.759Z,21.33
2018-06-16T02:40:32.302Z,24.67
2018-06-16T02:43:02.914Z,23.67
2018-06-16T02:45:36.537Z,23.00
2018-06-16T02:48:07.096Z,27.33
2018-06-16T02:50:37.762Z,24.67
2018-06-16T02:53:09.180Z,21.00
2018-06-16T02:55:39.700Z,24.67
2018-06-16T02:58:10.276Z,24.67
2018-06-16T03:00:41.761Z,24.00
2018-06-16T03:03:12.380Z,23.67
2018-06-16T03:05:43.490Z,24.00
2018-06-16T03:08:14.084Z,17.67
2018-06-16T03:10:44.587Z,24.67
2018-06-16T03:13:15.141Z,25.67
2018-06-16T03:15:45.685Z,24.67
2018-06-16T03:18:16.041Z,26.00
2018-06-16T03:20:46.617Z,27.00
2018-06-16T03:23:17.125Z,22.33
2018-06-16T03:25:47.651Z,25.00
2018-06-16T03:28:18.225Z,28.33
2018-06-16T03:30:48.773Z,25.00
2018-06-16T03:33:22.644Z,25.33
2018-06-16T03:35:53.436Z,28.00
2018-06-16T03:38:24.026Z,25.00
2018-06-16T03:40:54.773Z,22.00
2018-06-16T03:43:25.555Z,30.33
2018-06-16T03:45:56.582Z,26.33
2018-06-16T03:48:27.181Z,24.67
2018-06-16T03:50:59.583Z,26.00
2018-06-16T03:53:30.357Z,24.00
2018-06-16T03:56:01.833Z,23.00
2018-06-16T03:58:32.442Z,28.00
2018-06-16T04:01:03.181Z,22.67
2018-06-16T04:03:33.720Z,22.33
2018-06-16T04:06:04.376Z,27.00
2018-06-16T04:08:36.667Z,25.33
2018-06-16T04:11:07.425Z,23.00
2018-06-16T04:13:38.169Z,22.33
2018-06-16T04:16:09.587Z,23.00
2018-06-16T04:18:40.069Z,21.67
2018-06-16T04:21:10.610Z,25.67
2018-06-16T04:23:41.196Z,27.00
2018-06-16T04:26:12.645Z,22.33
2018-06-16T04:28:43.211Z,27.00
2018-06-16T04:31:13.774Z,22.67
2018-06-16T04:33:44.374Z,26.33
2018-06-16T04:36:14.989Z,24.33
2018-06-16T04:38:45.487Z,22.67
2018-06-16T04:41:16.053Z,25.00
2018-06-16T04:43:46.673Z,22.67
2018-06-16T04:46:17.253Z,28.67
2018-06-16T04:48:49.388Z,26.67
2018-06-16T04:51:19.992Z,26.33
2018-06-16T04:53:50.533Z,26.00
2018-06-16T04:56:21.071Z,28.33
2018-06-16T04:58:52.088Z,27.33
2018-06-16T05:01:22.688Z,26.33
2018-06-16T05:03:53.277Z,24.67
2018-06-16T05:06:23.876Z,24.00
2018-06-16T05:08:54.509Z,27.67
2018-06-16T05:11:25.036Z,26.33
2018-06-16T05:13:55.660Z,22.00
2018-06-16T05:16:26.246Z,24.00
2018-06-16T05:18:56.858Z,24.33
2018-06-16T05:21:27.412Z,25.00
2018-06-16T05:23:57.988Z,23.33
2018-06-16T05:26:29.371Z,26.00
2018-06-16T05:28:59.980Z,26.00
2018-06-16T05:31:31.349Z,23.33
2018-06-16T05:34:01.954Z,23.67
2018-06-16T05:36:32.493Z,25.00
2018-06-16T05:39:06.720Z,30.67
2018-06-16T05:41:38.202Z,25.33
2018-06-16T05:44:08.809Z,28.67
2018-06-16T05:46:39.315Z,25.67
2018-06-16T05:49:11.133Z,22.33
2018-06-16T05:51:41.817Z,22.67
2018-06-16T05:54:12.357Z,27.33
2018-06-16T05:56:42.909Z,28.00
2018-06-16T05:59:13.464Z,23.33
2018-06-16T06:01:43.974Z,25.67
2018-06-16T06:04:14.509Z,22.67
2018-06-16T06:06:45.367Z,29.00
2018-06-16T06:09:16.676Z,23.67
2018-06-16T06:11:47.256Z,25.00
2018-06-16T06:14:17.935Z,24.67
2018-06-16T06:16:48.452Z,24.00
2018-06-16T06:19:19.033Z,25.00
2018-06-16T06:21:49.384Z,27.00
2018-06-16T06:24:20.444Z,27.00
2018-06-16T06:26:53.798Z,23.00
2018-06-16T06:29:24.998Z,30.00
2018-06-16T06:31:55.596Z,28.33
2018-06-16T06:34:26.192Z,24.67
2018-06-16T06:36:56.782Z,30.67
2018-06-16T06:39:27.337Z,27.00
2018-06-16T06:41:57.858Z,24.00
2018-06-16T06:44:28.487Z,29.33
2018-06-16T06:46:59.040Z,29.33
2018-06-16T06:49:30.276Z,25.67
2018-06-16T06:52:00.864Z,26.00
2018-06-16T06:54:31.476Z,29.67
2018-06-16T06:57:02.079Z,25.00
2018-06-16T06:59:32.672Z,27.33
2018-06-16T07:02:04.369Z,28.00
2018-06-16T07:04:35.971Z,29.00
2018-06-16T07:07:06.693Z,27.00
2018-06-16T07:09:37.252Z,25.00
2018-06-16T07:12:08.994Z,26.00
2018-06-16T07:14:39.558Z,24.00
2018-06-16T07:17:10.668Z,25.33
2018-06-16T07:19:41.752Z,27.67
2018-06-16T07:22:12.316Z,23.67
2018-06-16T07:24:44.244Z,30.33
2018-06-16T07:27:14.825Z,22.33
2018-06-16T07:29:45.526Z,23.00
2018-06-16T07:32:19.616Z,24.67
2018-06-16T07:34:54.172Z,27.00
2018-06-16T07:37:24.767Z,26.33
2018-06-16T07:39:55.604Z,23.33
2018-06-16T07:42:26.141Z,30.00
2018-06-16T07:44:57.371Z,22.00
2018-06-16T07:47:28.631Z,23.67
2018-06-16T07:50:00.054Z,28.67
2018-06-16T07:52:30.776Z,23.00
2018-06-16T07:55:02.288Z,27.67
2018-06-16T07:57:32.892Z,28.00
2018-06-16T08:00:04.819Z,25.00
2018-06-16T08:02:35.397Z,27.67
2018-06-16T08:05:06.186Z,25.67
2018-06-16T08:07:38.316Z,25.00
2018-06-16T08:10:08.973Z,22.00
2018-06-16T08:12:41.186Z,25.33
2018-06-16T08:15:14.749Z,25.00
2018-06-16T08:17:46.681Z,25.00
2018-06-16T08:20:18.192Z,27.67
2018-06-16T08:22:50.221Z,23.67
2018-06-16T08:25:21.656Z,21.00
2018-06-16T08:27:54.232Z,23.33
2018-06-16T08:30:24.760Z,23.67
2018-06-16T08:32:55.300Z,20.67
2018-06-16T08:35:26.872Z,22.33
2018-06-16T08:37:57.415Z,20.33
2018-06-16T08:40:27.965Z,22.00
2018-06-16T08:42:59.228Z,25.00
2018-06-16T08:45:34.652Z,23.67
2018-06-16T08:48:06.620Z,20.33
2018-06-16T08:50:40.048Z,23.33
2018-06-16T08:53:10.759Z,26.33
2018-06-16T08:55:41.339Z,23.00
2018-06-16T08:58:12.183Z,19.67
2018-06-16T09:00:43.080Z,22.00
2018-06-16T09:03:17.487Z,22.00
2018-06-16T09:05:48.919Z,21.00
2018-06-16T09:08:21.413Z,21.00
2018-06-16T09:10:56.402Z,23.33
2018-06-16T09:13:26.961Z,23.33
2018-06-16T09:15:58.375Z,20.00
2018-06-16T09:18:29.208Z,20.67
2018-06-16T09:20:59.756Z,18.33
2018-06-16T09:23:30.331Z,19.33
2018-06-16T09:26:01.680Z,22.33
2018-06-16T09:28:33.154Z,19.00
2018-06-16T09:31:05.569Z,22.00
2018-06-16T09:33:36.884Z,27.00
2018-06-16T09:36:09.142Z,21.67
2018-06-16T09:38:39.775Z,25.00
2018-06-16T09:41:10.360Z,21.00
2018-06-16T09:43:40.961Z,23.00
2018-06-16T09:46:15.497Z,25.00
2018-06-16T09:48:47.796Z,23.33
2018-06-16T09:51:18.382Z,21.67
2018-06-16T09:53:49.183Z,19.33
2018-06-16T09:56:20.462Z,19.33
2018-06-16T09:58:51.815Z,19.67
2018-06-16T10:01:23.084Z,23.00
2018-06-16T10:03:56.956Z,22.00
2018-06-16T10:06:29.900Z,22.00
2018-06-16T10:09:01.321Z,23.67
2018-06-16T10:11:31.690Z,22.33
2018-06-16T10:14:02.474Z,23.67
2018-06-16T10:16:33.145Z,22.33
2018-06-16T10:19:03.922Z,22.67
2018-06-16T10:21:35.414Z,22.00
2018-06-16T10:24:06.422Z,22.00
2018-06-16T10:26:39.657Z,22.33
2018-06-16T10:29:10.366Z,23.33
2018-06-16T10:31:42.029Z,23.00
2018-06-16T10:34:13.564Z,23.33
2018-06-16T10:36:46.222Z,24.33
2018-06-16T10:39:17.864Z,23.33
2018-06-16T10:41:52.622Z,22.00
2018-06-16T10:44:24.080Z,22.33
2018-06-16T10:46:54.606Z,26.33
2018-06-16T10:49:27.360Z,22.00
2018-06-16T10:51:57.869Z,20.00
2018-06-16T10:54:31.944Z,22.67
2018-06-16T10:57:02.481Z,23.00
2018-06-16T10:59:33.989Z,21.67
2018-06-16T11:02:07.629Z,24.00
2018-06-16T11:04:40.492Z,23.00
2018-06-16T11:07:13.508Z,21.33
2018-06-16T11:09:45.192Z,20.00
2018-06-16T11:12:19.870Z,19.33
2018-06-16T11:14:53.207Z,23.33
2018-06-16T11:17:26.613Z,21.67
2018-06-16T11:19:57.249Z,23.33
2018-06-16T11:22:29.421Z,22.67
2018-06-16T11:25:00.051Z,19.67
2018-06-16T11:27:36.593Z,21.33
2018-06-16T11:30:14.344Z,22.00
2018-06-16T11:32:46.310Z,21.00
2018-06-16T11:35:17.701Z,22.33
2018-06-16T11:37:48.342Z,22.00
2018-06-16T11:40:18.922Z,20.67
2018-06-16T11:42:54.582Z,21.00
2018-06-16T11:45:27.943Z,21.00
2018-06-16T11:48:02.970Z,24.33
2018-06-16T11:50:34.923Z,21.67
2018-06-16T11:53:07.919Z,24.00
2018-06-16T11:55:38.501Z,18.67
2018-06-16T11:58:09.867Z,24.67
2018-06-16T12:00:41.361Z,22.33
2018-06-16T12:03:12.020Z,20.00
2018-06-16T12:05:43.344Z,18.67
2018-06-16T12:08:14.044Z,19.00
2018-06-16T12:10:44.295Z,20.00
2018-06-16T12:13:17.878Z,20.00
2018-06-16T12:15:49.290Z,17.00
2018-06-16T12:18:21.317Z,15.67
2018-06-16T12:20:54.689Z,17.33
2018-06-16T12:23:27.907Z,18.67
2018-06-16T12:26:00.339Z,18.00
2018-06-16T12:28:30.950Z,16.67
2018-06-16T12:31:04.249Z,19.00
2018-06-16T12:33:36.632Z,20.67
2018-06-16T12:36:09.353Z,21.00
2018-06-16T12:38:40.751Z,20.00
2018-06-16T12:41:13.374Z,20.33
2018-06-16T12:43:44.904Z,19.00
2018-06-16T12:46:17.248Z,20.33
2018-06-16T12:48:50.153Z,23.33
2018-06-16T12:51:21.969Z,22.67
2018-06-16T12:53:53.228Z,19.00
2018-06-16T12:56:25.002Z,19.00
2018-06-16T12:58:56.844Z,23.00
2018-06-16T13:01:27.450Z,21.00
2018-06-16T13:03:58.950Z,22.00
2018-06-16T13:06:30.128Z,23.00
2018-06-16T13:09:04.672Z,20.00
2018-06-16T13:11:37.376Z,18.67
2018-06-16T13:14:14.442Z,22.00
2018-06-16T13:16:45.068Z,17.00
2018-06-16T13:19:18.232Z,18.33
2018-06-16T13:21:50.583Z,19.33
2018-06-16T13:24:23.534Z,17.67
2018-06-16T13:26:54.049Z,15.00
2018-06-16T13:29:26.169Z,18.00
2018-06-16T13:31:56.709Z,19.67
2018-06-16T13:34:29.158Z,18.00
2018-06-16T13:37:01.549Z,19.00
2018-06-16T13:39:32.839Z,16.67
2018-06-16T13:42:03.954Z,18.67
2018-06-16T13:44:36.203Z,17.67
2018-06-16T13:47:13.534Z,17.33
2018-06-16T13:49:45.057Z,14.67
2018-06-16T13:52:16.868Z,12.33
2018-06-16T13:54:50.552Z,14.33
2018-06-16T13:57:22.672Z,20.00
2018-06-16T13:59:55.072Z,18.67
2018-06-16T14:02:25.652Z,18.67
2018-06-16T14:04:58.264Z,18.67
2018-06-16T14:07:30.368Z,18.00
2018-06-16T14:10:06.292Z,14.33
2018-06-16T14:12:40.520Z,15.67
2018-06-16T14:15:18.953Z,12.00
2018-06-16T14:17:51.434Z,13.67
2018-06-16T14:21:26.794Z,15.67
2018-06-16T14:23:59.633Z,14.33
2018-06-16T14:26:33.645Z,14.00
2018-06-16T14:29:07.789Z,16.67
2018-06-16T14:31:42.276Z,15.33
2018-06-16T14:34:19.935Z,16.00
2018-06-16T14:36:51.876Z,18.67
2018-06-16T14:39:23.349Z,14.67
2018-06-16T14:41:54.828Z,14.00
2018-06-16T14:44:25.419Z,15.67
2018-06-16T14:47:01.471Z,17.00
2018-06-16T14:49:33.078Z,15.33
2018-06-16T14:52:05.023Z,16.33
2018-06-16T14:54:37.377Z,20.00
2018-06-16T14:57:08.561Z,21.00
2018-06-16T14:59:39.370Z,19.00
2018-06-16T15:02:13.852Z,18.33
2018-06-16T15:04:47.032Z,16.00
2018-06-16T15:07:17.818Z,21.00
2018-06-16T15:09:49.305Z,15.00
2018-06-16T15:12:21.688Z,19.00
2018-06-16T15:14:55.436Z,16.00
2018-06-16T15:17:27.822Z,16.33
2018-06-16T15:20:00.284Z,17.33
2018-06-16T15:22:35.368Z,17.33
2018-06-16T15:25:10.648Z,19.00
2018-06-16T15:27:44.256Z,15.00
2018-06-16T15:30:17.941Z,17.33
2018-06-16T15:32:54.526Z,18.33
2018-06-16T15:35:28.898Z,17.33
2018-06-16T15:38:05.388Z,15.00
2018-06-16T15:40:37.533Z,15.67
2018-06-16T15:43:12.876Z,16.67
2018-06-16T15:45:46.816Z,14.33
2018-06-16T15:48:17.903Z,16.33
2018-06-16T15:50:50.843Z,20.00
2018-06-16T15:53:25.017Z,17.33
2018-06-16T15:55:56.460Z,18.00
2018-06-16T15:58:30.417Z,17.67
2018-06-16T16:01:02.763Z,16.33
2018-06-16T16:03:33.832Z,17.67
2018-06-16T16:06:04.440Z,18.00
2018-06-16T16:08:38.595Z,17.67
2018-06-16T16:11:15.820Z,17.00
2018-06-16T16:13:49.316Z,17.67
2018-06-16T16:16:23.438Z,20.67
2018-06-16T16:18:55.045Z,17.00
2018-06-16T16:21:26.333Z,17.00
2018-06-16T16:23:58.699Z,17.00
2018-06-16T16:26:30.640Z,19.33
2018-06-16T16:29:01.533Z,17.00
2018-06-16T16:31:35.022Z,17.67
2018-06-16T16:34:10.921Z,21.00
2018-06-16T16:36:41.675Z,17.67
2018-06-16T16:39:13.558Z,18.67
2018-06-16T16:41:44.229Z,18.00
2018-06-16T16:44:17.106Z,18.67
2018-06-16T16:46:49.364Z,18.67
2018-06-16T16:49:20.703Z,19.67
2018-06-16T16:51:53.093Z,17.67
2018-06-16T16:54:25.371Z,16.00
2018-06-16T16:57:02.453Z,17.00
2018-06-16T16:59:37.632Z,17.00
2018-06-16T17:02:14.519Z,17.67
2018-06-16T17:04:47.353Z,16.00
2018-06-16T17:07:20.948Z,15.67
2018-06-16T17:09:52.784Z,15.00
2018-06-16T17:12:24.247Z,15.67
2018-06-16T17:14:57.284Z,18.67
2018-06-16T17:17:31.735Z,17.00
2018-06-16T17:20:04.211Z,17.00
2018-06-16T17:22:37.617Z,14.67
2018-06-16T17:25:13.916Z,14.67
2018-06-16T17:27:46.400Z,17.00
2018-06-16T17:30:21.227Z,15.33
2018-06-16T17:32:54.140Z,17.67
2018-06-16T17:35:28.404Z,16.25
2018-06-16T17:38:00.767Z,16.00
2018-06-16T17:40:34.611Z,17.00
2018-06-16T17:43:11.561Z,18.33
2018-06-16T17:45:44.770Z,17.00
2018-06-16T17:48:29.863Z,19.00
2018-06-16T17:51:04.468Z,17.67
2018-06-16T17:53:38.769Z,14.00
2018-06-16T17:56:13.836Z,15.67
2018-06-16T17:58:48.544Z,15.00
2018-06-16T18:01:23.269Z,15.67
2018-06-16T18:03:56.423Z,16.00
2018-06-16T18:06:31.798Z,16.00
2018-06-16T18:09:03.400Z,15.00
2018-06-16T18:11:35.574Z,14.00
2018-06-16T18:14:08.015Z,16.33
2018-06-16T18:16:40.673Z,15.00
2018-06-16T18:19:14.006Z,14.00
2018-06-16T18:21:47.656Z,18.33
2018-06-16T18:24:22.441Z,17.00
2018-06-16T18:26:55.425Z,16.67
2018-06-16T18:29:31.571Z,18.00
2018-06-16T18:32:03.595Z,17.67
2018-06-16T18:34:35.013Z,17.00
2018-06-16T18:37:06.546Z,18.33
2018-06-16T18:39:37.611Z,18.00
2018-06-16T18:42:11.114Z,18.67
2018-06-16T18:44:41.705Z,18.33
2018-06-16T18:47:15.311Z,17.33
2018-06-16T18:49:48.403Z,20.00
2018-06-16T18:52:23.487Z,17.33
2018-06-16T18:54:54.409Z,18.00
2018-06-16T18:57:26.933Z,17.67
2018-06-16T18:59:59.468Z,18.67
2018-06-16T19:02:32.491Z,16.00
2018-06-16T19:05:04.109Z,17.67
2018-06-16T19:07:35.140Z,19.33
2018-06-16T19:10:07.439Z,21.00
2018-06-16T19:12:40.385Z,19.33
2018-06-16T19:15:15.274Z,18.67
2018-06-16T19:17:51.034Z,17.33
2018-06-16T19:20:23.941Z,18.67
2018-06-16T19:23:00.023Z,18.67
2018-06-16T19:25:36.155Z,24.00
2018-06-16T19:28:13.651Z,16.33
2018-06-16T19:30:46.795Z,17.67
2018-06-16T19:33:18.886Z,18.33
2018-06-16T19:35:52.634Z,20.67
2018-06-16T19:38:25.261Z,18.33
2018-06-16T19:40:57.652Z,18.67
2018-06-16T19:43:30.144Z,15.33
2018-06-16T19:46:02.414Z,16.33
2018-06-16T19:48:36.987Z,17.00
2018-06-16T19:51:12.242Z,16.67
2018-06-16T19:53:46.192Z,19.00
2018-06-16T19:56:23.984Z,15.67
2018-06-16T19:59:00.668Z,18.00
2018-06-16T20:01:37.094Z,17.33
2018-06-16T20:04:10.432Z,17.00
2018-06-16T20:06:45.814Z,19.00
2018-06-16T20:09:26.074Z,17.67
2018-06-16T20:12:02.073Z,21.00
2018-06-16T20:14:36.155Z,21.00
2018-06-16T20:17:11.595Z,18.67
2018-06-16T20:19:43.605Z,19.00
2018-06-16T20:22:19.459Z,20.00
2018-06-16T20:24:54.308Z,25.00
2018-06-16T20:27:28.204Z,19.33
2018-06-16T20:30:05.859Z,20.00
2018-06-16T20:32:39.105Z,21.00
2018-06-16T20:35:11.580Z,16.33
2018-06-16T20:37:45.257Z,20.00
2018-06-16T20:40:21.589Z,18.33
2018-06-16T20:42:56.744Z,19.33
2018-06-16T20:45:32.679Z,17.33
2018-06-16T20:48:08.045Z,19.00
2018-06-16T20:50:43.117Z,18.33
2018-06-16T20:53:19.397Z,20.67
2018-06-16T20:55:53.026Z,20.00
2018-06-16T20:58:26.065Z,23.00
2018-06-16T21:00:58.664Z,22.00
2018-06-16T21:03:31.444Z,25.33
2018-06-16T21:06:03.145Z,22.00
2018-06-16T21:08:35.044Z,19.00
2018-06-16T21:11:06.368Z,18.33
2018-06-16T21:13:40.151Z,17.00
2018-06-16T21:16:13.275Z,14.00
2018-06-16T21:18:47.266Z,13.00
2018-06-16T21:23:58.605Z,12.00
2018-06-16T21:26:32.661Z,11.75
2018-06-16T21:29:05.115Z,13.00
2018-06-16T21:31:44.297Z,12.00
2018-06-16T21:34:19.912Z,10.80
2018-06-16T21:36:53.796Z,12.00
2018-06-16T21:39:26.245Z,11.00
2018-06-16T21:41:57.804Z,8.00
2018-06-16T21:44:30.804Z,11.00
2018-06-16T21:47:03.129Z,10.80
2018-06-16T21:49:36.798Z,9.60
2018-06-16T21:52:10.032Z,8.50
2018-06-16T21:54:42.987Z,8.00
2018-06-16T21:57:22.943Z,9.33
2018-06-16T22:00:01.320Z,8.00
2018-06-16T22:05:09.347Z,9.00
2018-06-16T22:07:50.259Z,8.00
2018-06-16T22:10:23.676Z,10.40
2018-06-16T22:12:57.706Z,10.00
2018-06-16T22:15:29.803Z,9.33
2018-06-16T22:18:03.576Z,10.60
2018-06-16T22:20:38.763Z,8.71
2018-06-16T22:23:11.659Z,11.00
2018-06-16T22:25:48.134Z,11.71
2018-06-16T22:28:24.146Z,10.40
2018-06-16T22:30:56.757Z,11.67
2018-06-16T22:33:31.744Z,10.57
2018-06-16T22:36:04.561Z,10.00
2018-06-16T22:38:37.744Z,8.67
2018-06-16T22:41:10.321Z,10.00
2018-06-16T22:43:42.590Z,10.60
2018-06-16T22:46:14.108Z,11.00
2018-06-16T22:48:47.979Z,10.00
2018-06-16T22:51:20.356Z,9.33
2018-06-16T22:53:53.582Z,10.00
2018-06-16T22:56:26.293Z,10.00
2018-06-16T22:58:58.562Z,8.00
2018-06-16T23:01:32.331Z,8.40
2018-06-16T23:04:05.259Z,10.00
2018-06-16T23:06:39.322Z,11.00
2018-06-16T23:09:12.612Z,9.33
2018-06-16T23:11:46.489Z,10.60
2018-06-16T23:14:18.748Z,11.00
2018-06-16T23:16:51.569Z,11.00
2018-06-16T23:19:27.301Z,9.33
2018-06-16T23:22:07.974Z,11.60
2018-06-16T23:24:39.829Z,11.67
2018-06-16T23:27:19.283Z,12.60
2018-06-16T23:29:53.824Z,12.00
2018-06-16T23:32:28.026Z,11.00
2018-06-16T23:35:03.340Z,10.20
2018-06-16T23:37:35.713Z,8.00
2018-06-16T23:40:08.485Z,10.00
2018-06-16T23:42:43.317Z,11.60
2018-06-16T23:45:16.789Z,14.20
2018-06-16T23:47:49.542Z,12.00
2018-06-16T23:50:26.456Z,13.00
2018-06-16T23:53:01.458Z,12.00
2018-06-16T23:55:40.465Z,13.25
2018-06-16T23:58:13.735Z,11.20
